PUC weather

Carbon County Regional/Buck Davis Field
Price, Utah, United States

Public forecast

Using degrees Fahrenheit for public forecast. Weather courtesy of forecast.io.

Current aviation weather report (METAR) for Carbon County Regional/Buck Davis Field

Retrieved 2020/04/03 09:53 UTC (48 minutes ago):

KPUC 030953Z AUTO 01007KT 10SM CLR M05/M17 A3004 RMK AO2 SLP203 T10501172

Closest aviation forecast (TAF) to Carbon County Regional/Buck Davis Field

Closest forecast is Provo Municipal Airport, 57.7 nm (106.8 km) NW. Retrieved 2020/04/03 06:22 UTC (4 hours ago):

TAF KPVU 030520Z 0306/0406 VRB05KT P6SM SCT090 FM031800 24006KT P6SM SCT100 FM040300 VRB05KT P6SM SCT100